Time;durP1;ratioP1;P1;durP2;ratioP2;P2;SDS_P1;SDS_P2;PMS_P1;PMS_P2;Temp;Humidity;BMP_temperature;BMP_pressure;BME280_temperature;BME280_humidity;BME280_pressure;Samples;Min_cycle;Max_cycle;Signal;HPM_P1;HPM_P2
2022/12/30 00:01:17;;;;;;;5.88;5.57;;;9.30;99.90;;;;;;4228619;28;20055;-82
2022/12/30 00:03:36;;;;;;;6.05;5.60;;;9.30;99.90;;;;;;4228003;28;20043;-81
2022/12/30 00:05:56;;;;;;;5.78;5.50;;;9.30;99.90;;;;;;4228101;28;20086;-82
2022/12/30 00:10:55;;;;;;;6.05;5.85;;;9.30;99.90;;;;;;4227712;28;20134;-81
2022/12/30 00:34:59;;;;;;;5.28;4.93;;;9.40;99.90;;;;;;4229277;28;19923;-81
2022/12/30 00:37:18;;;;;;;5.43;5.13;;;9.50;99.90;;;;;;4233655;28;20051;-81
2022/12/30 00:39:38;;;;;;;4.70;4.50;;;9.50;99.90;;;;;;4235150;28;20059;-81
2022/12/30 00:44:37;;;;;;;4.25;3.80;;;9.40;99.90;;;;;;4230266;28;20094;-82
2022/12/30 00:46:58;;;;;;;6.53;4.55;;;9.60;99.90;;;;;;4231102;28;20098;-81
2022/12/30 00:57:13;;;;;;;4.40;4.00;;;9.80;99.90;;;;;;4234174;28;20050;-82
2022/12/30 00:59:33;;;;;;;5.22;4.78;;;9.80;99.90;;;;;;4233689;28;20035;-81
2022/12/30 01:01:53;;;;;;;4.28;3.90;;;9.80;99.90;;;;;;4232581;28;20134;-81
2022/12/30 01:04:13;;;;;;;4.43;4.28;;;9.70;99.90;;;;;;4232557;28;20047;-81
2022/12/30 01:06:33;;;;;;;3.88;3.60;;;9.80;99.90;;;;;;4232352;28;20059;-82
2022/12/30 01:08:52;;;;;;;4.95;4.45;;;10.00;99.90;;;;;;4231403;28;20054;-82
2022/12/30 01:11:13;;;;;;;4.47;4.38;;;10.10;99.90;;;;;;4231039;28;20054;-81
2022/12/30 01:13:33;;;;;;;3.78;3.47;;;10.10;99.90;;;;;;4232352;28;20043;-81
2022/12/30 01:15:54;;;;;;;12.70;4.10;;;10.10;99.90;;;;;;4231787;28;20054;-81
2022/12/30 01:18:13;;;;;;;4.65;4.43;;;10.20;99.90;;;;;;4222090;28;20039;-81
2022/12/30 01:20:35;;;;;;;5.22;4.70;;;10.30;99.90;;;;;;4229260;28;20423;-81
2022/12/30 01:22:56;;;;;;;5.90;5.35;;;10.30;99.90;;;;;;4228042;28;20389;-81
2022/12/30 01:25:16;;;;;;;4.93;4.72;;;10.30;99.90;;;;;;4223290;28;20399;-81
2022/12/30 01:27:36;;;;;;;4.82;4.25;;;10.30;99.90;;;;;;4230347;28;20445;-81
2022/12/30 01:29:56;;;;;;;2.92;2.92;;;10.30;99.90;;;;;;4229140;28;20055;-81
2022/12/30 01:32:21;;;;;;;3.90;3.60;;;10.20;99.90;;;;;;4226382;28;20055;-81
2022/12/30 01:34:41;;;;;;;4.35;3.90;;;10.20;99.90;;;;;;4210550;28;20075;-81
2022/12/30 01:37:02;;;;;;;3.63;3.45;;;10.30;99.90;;;;;;4232388;28;20084;-81
2022/12/30 01:39:22;;;;;;;4.72;4.30;;;10.40;99.90;;;;;;4230623;28;20050;-82
2022/12/30 01:41:42;;;;;;;4.88;4.00;;;10.20;99.90;;;;;;4232402;28;20055;-82
2022/12/30 01:44:58;;;;;;;5.25;4.80;;;10.10;99.90;;;;;;4229290;28;20050;-81
2022/12/30 01:47:25;;;;;;;4.80;4.63;;;10.10;99.90;;;;;;4183246;28;20386;-82
2022/12/30 01:49:48;;;;;;;4.13;4.03;;;10.20;99.90;;;;;;4182868;28;20087;-81
2022/12/30 01:52:08;;;;;;;3.53;3.42;;;10.20;99.90;;;;;;4183971;28;20055;-81
2022/12/30 01:54:28;;;;;;;5.25;3.75;;;10.20;99.90;;;;;;4172659;28;20047;-82
2022/12/30 01:56:48;;;;;;;4.00;3.67;;;10.10;99.90;;;;;;4185357;28;20051;-82
2022/12/30 01:59:16;;;;;;;4.35;4.13;;;10.10;99.90;;;;;;4184888;28;20244;-81
2022/12/30 02:01:37;;;;;;;4.68;4.38;;;10.10;99.90;;;;;;4187337;28;20044;-81
2022/12/30 02:04:04;;;;;;;4.93;4.70;;;10.10;99.90;;;;;;4186237;28;20074;-80
2022/12/30 02:06:31;;;;;;;3.60;3.50;;;10.20;99.90;;;;;;4186208;28;20043;-81
2022/12/30 02:08:51;;;;;;;4.60;4.22;;;10.20;99.90;;;;;;4198704;28;20048;-82
2022/12/30 02:11:12;;;;;;;4.28;3.83;;;10.10;99.90;;;;;;4199209;28;20125;-83
2022/12/30 02:13:33;;;;;;;4.22;4.13;;;10.10;99.90;;;;;;4187133;28;20076;-81
2022/12/30 02:16:01;;;;;;;6.90;6.28;;;10.00;99.90;;;;;;4185112;28;20044;-81
2022/12/30 02:18:38;;;;;;;4.50;4.28;;;10.00;99.90;;;;;;4186128;28;20088;-81
2022/12/30 02:21:25;;;;;;;5.00;4.70;;;10.10;99.90;;;;;;4201059;28;20089;-81
2022/12/30 02:24:08;;;;;;;4.90;4.80;;;10.10;99.90;;;;;;4230312;28;20280;-81
2022/12/30 02:26:30;;;;;;;4.97;4.25;;;10.10;99.90;;;;;;4228135;28;20051;-81
2022/12/30 02:29:02;;;;;;;5.20;5.10;;;10.10;99.90;;;;;;4222571;28;20120;-81
2022/12/30 02:31:34;;;;;;;4.78;3.95;;;10.10;99.90;;;;;;4230565;28;20111;-81
2022/12/30 02:34:08;;;;;;;5.45;5.25;;;10.00;99.90;;;;;;4231987;28;20043;-81
2022/12/30 02:36:55;;;;;;;4.60;4.40;;;10.00;99.90;;;;;;4228687;28;20058;-81
2022/12/30 02:39:30;;;;;;;5.32;4.97;;;10.00;99.90;;;;;;4215335;28;20386;-81
2022/12/30 02:45:09;;;;;;;5.45;5.13;;;9.90;99.90;;;;;;4229937;28;20043;-81
2022/12/30 02:47:46;;;;;;;4.30;4.10;;;9.90;99.90;;;;;;4230205;28;20065;-81
2022/12/30 02:52:50;;;;;;;4.95;4.85;;;9.80;99.90;;;;;;4228666;28;20059;-81
2022/12/30 02:55:10;;;;;;;5.40;5.05;;;9.80;99.90;;;;;;4229212;28;20097;-81
2022/12/30 02:57:32;;;;;;;7.03;6.80;;;9.80;99.90;;;;;;4230099;28;20051;-81
2022/12/30 03:06:12;;;;;;;5.25;5.05;;;9.70;99.90;;;;;;4228594;28;20391;-81
2022/12/30 03:08:58;;;;;;;5.45;5.15;;;9.70;99.90;;;;;;4227763;28;20104;-81
2022/12/30 03:11:19;;;;;;;5.82;5.43;;;9.70;99.90;;;;;;4191259;28;20127;-81
2022/12/30 03:14:04;;;;;;;7.00;5.72;;;9.70;99.90;;;;;;4214979;28;20393;-81
2022/12/30 03:16:45;;;;;;;5.85;5.45;;;9.60;99.90;;;;;;4215348;28;20047;-81
2022/12/30 03:19:08;;;;;;;5.70;5.38;;;9.70;99.90;;;;;;4233894;28;20080;-81
2022/12/30 03:21:32;;;;;;;7.40;6.85;;;9.70;99.90;;;;;;4206916;28;20044;-81
2022/12/30 03:29:18;;;;;;;5.97;5.60;;;9.60;99.90;;;;;;4233896;28;20357;-81
2022/12/30 03:31:39;;;;;;;5.57;5.35;;;9.70;99.90;;;;;;4227395;28;20104;-81
2022/12/30 03:33:59;;;;;;;5.50;5.18;;;9.70;99.90;;;;;;4227495;28;20051;-81
2022/12/30 03:36:44;;;;;;;6.10;5.90;;;9.70;99.90;;;;;;4231081;28;20052;-81
2022/12/30 03:39:28;;;;;;;6.28;5.75;;;9.70;99.90;;;;;;4230686;28;20047;-81
2022/12/30 03:41:49;;;;;;;6.13;5.90;;;9.70;99.90;;;;;;4228637;28;20313;-81
2022/12/30 03:44:10;;;;;;;6.03;5.45;;;9.70;99.90;;;;;;4222796;28;20378;-81
2022/12/30 03:46:32;;;;;;;5.45;5.15;;;9.70;99.90;;;;;;4230794;28;20054;-81
2022/12/30 03:48:52;;;;;;;5.85;5.75;;;9.70;99.90;;;;;;4230116;28;20432;-81
2022/12/30 03:51:12;;;;;;;5.60;5.38;;;9.70;99.90;;;;;;4214948;28;20443;-81
2022/12/30 03:53:32;;;;;;;4.95;4.75;;;9.70;99.90;;;;;;4227524;28;20047;-81
2022/12/30 03:55:52;;;;;;;8.15;7.63;;;9.70;99.90;;;;;;4227995;28;20142;-81
2022/12/30 03:58:12;;;;;;;5.30;5.20;;;9.80;99.90;;;;;;4228341;28;20120;-80
2022/12/30 04:00:32;;;;;;;5.57;5.28;;;9.80;99.90;;;;;;4228129;28;20232;-81
2022/12/30 04:02:52;;;;;;;5.90;5.60;;;9.90;99.90;;;;;;4229529;28;20073;-81
2022/12/30 04:05:12;;;;;;;5.57;5.03;;;10.00;99.90;;;;;;4229926;28;20358;-81
2022/12/30 04:07:33;;;;;;;5.90;5.53;;;10.10;99.90;;;;;;4228809;28;20081;-81
2022/12/30 04:09:53;;;;;;;8.73;5.63;;;10.10;99.90;;;;;;4227417;28;20415;-81
2022/12/30 04:12:13;;;;;;;4.97;4.70;;;10.10;99.90;;;;;;4227494;28;20112;-81
2022/12/30 04:14:33;;;;;;;5.70;5.22;;;10.20;99.90;;;;;;4229736;28;20066;-81
2022/12/30 04:16:53;;;;;;;5.45;5.05;;;10.30;99.90;;;;;;4233539;28;20051;-81
2022/12/30 04:19:14;;;;;;;6.07;5.18;;;10.30;99.90;;;;;;4232532;28;20066;-81
2022/12/30 04:21:34;;;;;;;6.45;6.07;;;10.30;99.90;;;;;;4230749;28;20097;-81
2022/12/30 04:23:54;;;;;;;5.60;5.40;;;10.30;99.90;;;;;;4232463;28;20235;-81
2022/12/30 04:26:14;;;;;;;8.95;5.40;;;10.30;99.90;;;;;;4229953;28;20081;-81
2022/12/30 04:28:33;;;;;;;6.07;5.55;;;10.40;99.90;;;;;;4232473;28;20047;-81
2022/12/30 04:30:53;;;;;;;8.23;7.50;;;10.30;99.90;;;;;;4232585;28;20082;-81
2022/12/30 04:33:13;;;;;;;5.35;5.10;;;10.40;99.90;;;;;;4219618;28;20082;-81
2022/12/30 04:35:33;;;;;;;6.30;6.00;;;10.40;99.90;;;;;;4237291;28;20078;-81
2022/12/30 04:37:54;;;;;;;7.30;6.65;;;10.40;99.90;;;;;;4228674;28;20396;-81
2022/12/30 04:40:14;;;;;;;7.20;6.80;;;10.40;99.90;;;;;;4229746;28;20046;-81
2022/12/30 04:42:34;;;;;;;6.25;5.95;;;10.40;99.90;;;;;;4232024;28;20332;-81
2022/12/30 04:44:54;;;;;;;7.13;6.43;;;10.40;99.90;;;;;;4231995;28;20089;-81
2022/12/30 04:47:14;;;;;;;7.90;7.15;;;10.30;99.90;;;;;;4216552;28;20119;-81
2022/12/30 04:49:34;;;;;;;7.35;6.80;;;10.30;99.90;;;;;;4223899;28;20047;-81
2022/12/30 04:51:54;;;;;;;7.47;7.07;;;10.40;99.90;;;;;;4223049;28;20097;-81
2022/12/30 04:54:14;;;;;;;6.03;5.78;;;10.40;99.90;;;;;;4232767;28;20065;-81
2022/12/30 04:56:34;;;;;;;5.50;5.10;;;10.40;99.90;;;;;;4234471;28;20242;-80
2022/12/30 04:58:54;;;;;;;6.85;6.28;;;10.40;99.90;;;;;;4233059;28;20043;-81
2022/12/30 05:01:14;;;;;;;5.55;5.20;;;10.30;99.90;;;;;;4232325;28;20046;-81
2022/12/30 05:03:33;;;;;;;5.57;5.18;;;10.20;99.90;;;;;;4232219;28;20066;-81
2022/12/30 05:05:53;;;;;;;5.55;5.25;;;10.20;99.90;;;;;;4231431;28;20066;-81
2022/12/30 05:08:13;;;;;;;9.02;6.65;;;10.10;99.90;;;;;;4231327;28;20112;-81
2022/12/30 05:10:34;;;;;;;5.95;5.47;;;10.10;99.90;;;;;;4232125;28;20281;-81
2022/12/30 05:12:54;;;;;;;6.32;5.78;;;10.20;99.90;;;;;;4231109;28;20366;-81
2022/12/30 05:15:14;;;;;;;7.03;6.68;;;10.20;99.90;;;;;;4230358;28;20262;-81
2022/12/30 05:17:34;;;;;;;6.07;5.78;;;10.20;99.90;;;;;;4229555;28;20043;-81
2022/12/30 05:19:54;;;;;;;6.82;6.30;;;10.20;99.90;;;;;;4229362;28;20104;-81
2022/12/30 05:22:14;;;;;;;6.20;5.68;;;10.10;99.90;;;;;;4223191;28;20085;-81
2022/12/30 05:27:12;;;;;;;6.70;6.40;;;10.10;99.90;;;;;;4229336;28;20054;-81
2022/12/30 05:29:32;;;;;;;7.65;7.15;;;10.20;99.90;;;;;;4229134;28;20077;-81
2022/12/30 05:31:52;;;;;;;6.38;6.18;;;10.20;99.90;;;;;;4229251;28;20051;-81
2022/12/30 05:34:13;;;;;;;7.22;6.63;;;10.10;99.90;;;;;;4220076;28;20052;-81
2022/12/30 05:36:33;;;;;;;8.50;6.32;;;10.10;99.90;;;;;;4232069;28;20042;-81
2022/12/30 05:38:53;;;;;;;6.60;6.07;;;10.00;99.90;;;;;;4229215;28;20054;-81
2022/12/30 05:41:13;;;;;;;6.57;6.15;;;10.00;99.90;;;;;;4230339;28;20295;-81
2022/12/30 05:43:39;;;;;;;6.78;6.18;;;10.00;99.90;;;;;;4228680;28;20326;-81
2022/12/30 05:45:59;;;;;;;7.03;6.43;;;10.00;99.90;;;;;;4230020;28;20053;-80
2022/12/30 05:48:19;;;;;;;7.28;6.88;;;10.10;99.90;;;;;;4231418;28;20055;-81
2022/12/30 05:50:40;;;;;;;7.35;6.65;;;10.10;99.90;;;;;;4231450;28;20047;-81
2022/12/30 05:53:00;;;;;;;8.00;7.40;;;10.10;99.90;;;;;;4224150;28;20125;-81
2022/12/30 05:55:19;;;;;;;8.05;7.55;;;10.10;99.90;;;;;;4229259;28;20047;-81
2022/12/30 05:57:42;;;;;;;;;;;10.10;99.90;;;;;;4235156;28;20081;-82
2022/12/30 06:00:03;;;;;;;6.45;6.00;;;10.00;99.90;;;;;;4234562;28;19953;-81
2022/12/30 06:02:23;;;;;;;7.20;6.70;;;10.00;99.90;;;;;;4218491;28;20235;-81
2022/12/30 06:04:43;;;;;;;6.90;6.55;;;9.90;99.90;;;;;;4232423;28;20405;-81
2022/12/30 06:07:02;;;;;;;6.55;6.25;;;10.00;99.90;;;;;;4230657;28;20050;-82
2022/12/30 06:09:23;;;;;;;7.57;6.38;;;10.00;99.90;;;;;;4242088;28;20082;-85
2022/12/30 06:11:43;;;;;;;6.93;6.47;;;10.00;99.90;;;;;;4241382;28;20166;-84
2022/12/30 06:14:03;;;;;;;8.02;7.53;;;10.20;99.90;;;;;;4239794;28;20066;-84
2022/12/30 06:16:23;;;;;;;8.50;7.22;;;10.20;99.90;;;;;;4231359;28;20043;-84
2022/12/30 06:18:43;;;;;;;8.02;7.38;;;10.30;99.90;;;;;;4222139;28;20038;-84
2022/12/30 06:21:03;;;;;;;7.43;7.13;;;10.30;99.90;;;;;;4229732;28;20051;-84
2022/12/30 06:23:23;;;;;;;6.97;6.45;;;10.20;99.90;;;;;;4229083;28;20086;-84
2022/12/30 06:25:44;;;;;;;8.07;7.65;;;10.40;99.90;;;;;;4229660;28;20086;-84
2022/12/30 06:28:04;;;;;;;7.38;7.07;;;10.30;99.90;;;;;;4230935;28;20051;-84
2022/12/30 06:30:24;;;;;;;6.55;6.22;;;10.20;99.90;;;;;;4229627;28;20055;-84
2022/12/30 06:32:55;;;;;;;7.43;6.88;;;10.40;99.90;;;;;;4228668;28;20290;-84
2022/12/30 06:35:16;;;;;;;7.32;6.75;;;10.40;99.90;;;;;;4217718;28;20184;-84
2022/12/30 06:37:36;;;;;;;7.57;7.05;;;10.30;99.90;;;;;;4228703;28;20043;-84
2022/12/30 06:39:56;;;;;;;12.80;8.63;;;10.20;99.90;;;;;;4231969;28;20081;-84
2022/12/30 06:42:15;;;;;;;7.82;7.45;;;10.20;99.90;;;;;;4215723;28;20287;-84
2022/12/30 06:44:35;;;;;;;7.53;6.93;;;10.30;99.90;;;;;;4224226;28;20063;-84
2022/12/30 06:46:55;;;;;;;6.60;6.38;;;10.50;99.90;;;;;;4225630;28;20055;-84
2022/12/30 06:49:15;;;;;;;7.68;7.25;;;10.50;99.90;;;;;;4215931;28;20035;-84
2022/12/30 06:51:35;;;;;;;7.45;6.75;;;10.50;99.90;;;;;;4230032;28;20059;-84
2022/12/30 06:53:55;;;;;;;6.63;6.22;;;10.70;99.90;;;;;;4229548;28;20043;-84
2022/12/30 06:56:14;;;;;;;7.22;6.20;;;10.60;99.90;;;;;;4230667;28;20074;-83
2022/12/30 06:58:35;;;;;;;6.15;5.97;;;10.60;99.90;;;;;;4214292;28;20086;-85
2022/12/30 07:00:55;;;;;;;7.10;6.43;;;10.60;99.90;;;;;;4225861;28;20382;-86
2022/12/30 07:03:15;;;;;;;7.32;6.57;;;10.70;99.90;;;;;;4209626;28;20374;-85
2022/12/30 07:05:35;;;;;;;7.55;7.13;;;10.70;99.90;;;;;;4234613;28;20246;-85
2022/12/30 07:07:55;;;;;;;6.18;5.85;;;10.70;99.90;;;;;;4215947;28;20078;-86
2022/12/30 07:10:16;;;;;;;6.35;6.07;;;10.70;99.90;;;;;;4234994;28;20137;-85
2022/12/30 07:12:36;;;;;;;7.07;6.70;;;10.90;99.90;;;;;;4231142;28;20050;-85
2022/12/30 07:14:56;;;;;;;6.38;6.20;;;10.90;99.90;;;;;;4223615;28;20085;-86
2022/12/30 07:17:16;;;;;;;6.25;5.95;;;10.80;99.90;;;;;;4229328;28;20132;-85
2022/12/30 07:19:36;;;;;;;8.18;7.63;;;10.80;99.90;;;;;;4230602;28;20047;-85
2022/12/30 07:21:56;;;;;;;7.55;7.03;;;10.70;99.90;;;;;;4232020;28;20240;-85
2022/12/30 07:24:16;;;;;;;7.93;7.43;;;10.70;99.90;;;;;;4221783;28;20279;-85
2022/12/30 07:26:36;;;;;;;7.22;6.57;;;10.70;99.90;;;;;;4231395;28;20059;-86
2022/12/30 07:28:56;;;;;;;8.10;7.22;;;10.70;99.90;;;;;;4216193;28;20054;-86
2022/12/30 07:31:17;;;;;;;7.07;6.57;;;10.60;99.90;;;;;;4210149;22;20082;-86
2022/12/30 07:33:37;;;;;;;7.20;6.68;;;10.70;99.90;;;;;;4145881;28;20101;-86
2022/12/30 07:35:56;;;;;;;5.82;5.60;;;10.70;99.90;;;;;;4144870;28;20078;-86
2022/12/30 07:38:16;;;;;;;6.63;6.10;;;10.80;99.90;;;;;;4145665;28;20060;-86
2022/12/30 07:40:36;;;;;;;7.55;7.15;;;10.70;99.90;;;;;;4162399;28;20140;-86
2022/12/30 07:42:56;;;;;;;8.05;7.55;;;10.60;99.90;;;;;;4160456;28;20130;-86
2022/12/30 07:45:16;;;;;;;7.88;7.30;;;10.60;99.90;;;;;;4160084;28;20060;-86
2022/12/30 07:47:37;;;;;;;6.57;6.10;;;10.60;99.90;;;;;;4166740;28;20293;-86
2022/12/30 07:49:57;;;;;;;6.95;6.45;;;10.60;99.90;;;;;;4157522;28;20152;-86
2022/12/30 07:52:17;;;;;;;5.97;5.63;;;10.60;99.90;;;;;;4163394;28;20105;-86
2022/12/30 07:54:37;;;;;;;8.13;7.25;;;10.70;99.90;;;;;;4159405;28;20045;-86
2022/12/30 07:56:57;;;;;;;7.70;7.00;;;10.60;99.90;;;;;;4159111;28;20056;-86
2022/12/30 07:59:16;;;;;;;7.53;6.75;;;10.60;99.90;;;;;;4158015;28;20081;-86
2022/12/30 08:01:36;;;;;;;7.82;7.25;;;10.70;99.90;;;;;;4155843;28;20099;-86
2022/12/30 08:03:56;;;;;;;9.27;8.27;;;10.70;99.90;;;;;;4157387;28;20284;-86
2022/12/30 08:06:18;;;;;;;8.23;7.70;;;10.70;99.90;;;;;;4153572;28;20473;-86
2022/12/30 08:08:38;;;;;;;6.60;6.38;;;10.60;99.90;;;;;;4160671;28;20053;-86
2022/12/30 08:10:59;;;;;;;10.05;9.23;;;10.80;99.90;;;;;;4154381;28;20053;-86
2022/12/30 08:13:19;;;;;;;9.20;8.30;;;10.80;99.90;;;;;;4162922;28;20045;-86
2022/12/30 08:15:39;;;;;;;7.00;6.55;;;10.80;99.90;;;;;;4158611;28;20053;-86
2022/12/30 08:17:59;;;;;;;7.57;6.93;;;10.80;99.90;;;;;;4152200;28;20060;-86
2022/12/30 08:20:22;;;;;;;6.80;6.40;;;10.90;99.90;;;;;;4147266;28;20049;-86
2022/12/30 08:31:19;;;;;;;7.38;6.70;;;10.90;99.90;;;;;;4027636;29;20103;-90
2022/12/30 08:33:41;;;;;;;7.45;6.97;;;10.90;99.90;;;;;;4037587;23;20398;-89
2022/12/30 08:36:07;;;;;;;9.38;6.20;;;10.90;99.90;;;;;;4024198;29;20239;-89
2022/12/30 08:38:27;;;;;;;7.90;7.32;;;10.90;99.90;;;;;;4024986;29;20128;-89
2022/12/30 08:40:47;;;;;;;7.03;6.60;;;10.80;99.90;;;;;;4027442;29;20310;-89
2022/12/30 08:43:07;;;;;;;8.68;7.82;;;10.90;99.90;;;;;;4023569;29;20129;-89
2022/12/30 08:45:27;;;;;;;9.10;7.20;;;10.90;99.90;;;;;;4024936;29;20064;-89
2022/12/30 08:47:47;;;;;;;6.38;5.90;;;10.90;99.90;;;;;;4023675;29;20044;-89
2022/12/30 08:50:07;;;;;;;11.18;9.40;;;11.00;99.90;;;;;;4020169;29;20117;-89
2022/12/30 08:52:28;;;;;;;9.43;8.63;;;11.00;99.90;;;;;;4022789;29;20045;-90
2022/12/30 08:54:48;;;;;;;8.48;7.75;;;10.90;99.90;;;;;;4034284;29;20045;-89
2022/12/30 08:57:08;;;;;;;9.02;7.88;;;10.80;99.90;;;;;;4021411;29;20069;-90
2022/12/30 08:59:28;;;;;;;8.95;8.35;;;10.90;99.90;;;;;;4024731;29;20089;-89
2022/12/30 09:01:48;;;;;;;8.25;7.50;;;10.80;99.90;;;;;;4024568;29;20068;-89
2022/12/30 09:04:09;;;;;;;7.35;6.78;;;10.80;99.90;;;;;;4036143;29;20064;-91
2022/12/30 09:06:30;;;;;;;7.78;7.38;;;10.90;99.90;;;;;;4037178;29;20065;-90
2022/12/30 09:08:50;;;;;;;6.95;6.70;;;10.90;99.90;;;;;;4023632;29;20368;-91
2022/12/30 09:11:16;;;;;;;9.80;8.93;;;11.00;99.90;;;;;;4028325;29;20098;-90
2022/12/30 09:13:37;;;;;;;8.02;7.55;;;11.00;99.90;;;;;;4024020;29;20311;-90
2022/12/30 09:15:58;;;;;;;7.43;7.10;;;11.10;99.90;;;;;;4041756;29;20055;-90
2022/12/30 09:18:18;;;;;;;7.93;7.38;;;11.20;99.90;;;;;;4030268;29;20057;-90
2022/12/30 09:20:38;;;;;;;7.50;6.90;;;11.20;99.90;;;;;;4033879;29;20053;-90
2022/12/30 09:22:58;;;;;;;10.63;7.20;;;11.20;99.90;;;;;;4024025;29;20104;-90
2022/12/30 09:25:18;;;;;;;7.78;7.47;;;11.20;99.90;;;;;;4023515;29;20417;-90
2022/12/30 09:27:39;;;;;;;6.80;6.38;;;11.20;99.90;;;;;;4028798;29;20099;-90
2022/12/30 09:29:59;;;;;;;8.23;7.72;;;11.20;99.90;;;;;;4036394;29;20264;-90
2022/12/30 09:32:19;;;;;;;6.97;6.55;;;11.30;99.90;;;;;;4024539;29;20248;-91
2022/12/30 09:34:41;;;;;;;8.55;7.88;;;11.30;99.90;;;;;;4015887;29;20049;-90
2022/12/30 09:37:01;;;;;;;7.43;6.82;;;11.30;99.90;;;;;;4014503;29;20236;-90
2022/12/30 09:39:30;;;;;;;7.80;6.95;;;11.30;99.90;;;;;;4016045;29;20049;-90
2022/12/30 09:45:18;;;;;;;6.95;6.45;;;11.40;99.90;;;;;;4015049;29;20053;-90
2022/12/30 09:47:53;;;;;;;6.97;6.70;;;11.50;99.90;;;;;;3968591;30;20062;-90
2022/12/30 09:50:21;;;;;;;7.47;7.18;;;11.50;99.90;;;;;;3967703;30;20054;-90
2022/12/30 09:52:57;;;;;;;7.78;7.38;;;11.50;99.90;;;;;;3968715;30;20152;-91
2022/12/30 09:55:25;;;;;;;7.43;7.18;;;11.50;99.90;;;;;;3969130;30;20305;-91
2022/12/30 09:57:51;;;;;;;7.63;7.20;;;11.60;99.90;;;;;;3968786;30;20059;-90
2022/12/30 10:00:16;;;;;;;8.30;6.40;;;11.70;99.90;;;;;;3956241;30;20054;-91
2022/12/30 10:03:05;;;;;;;6.28;6.07;;;11.80;99.90;;;;;;3956283;30;20200;-91
2022/12/30 10:05:58;;;;;;;6.55;6.00;;;11.80;99.90;;;;;;3968706;30;20069;-92
2022/12/30 10:08:31;;;;;;;7.93;6.28;;;11.80;99.90;;;;;;3966862;30;20380;-93
2022/12/30 10:11:26;;;;;;;6.88;6.35;;;11.80;99.90;;;;;;3968279;30;20062;-94
2022/12/30 10:14:00;;;;;;;8.88;8.02;;;12.00;99.90;;;;;;3966048;30;20361;-93
2022/12/30 10:16:46;;;;;;;6.60;6.20;;;12.20;99.90;;;;;;3968114;29;20176;-93
2022/12/30 10:19:24;;;;;;;6.03;5.72;;;12.10;99.90;;;;;;3968749;30;20058;-93
2022/12/30 10:21:57;;;;;;;6.38;6.07;;;12.00;99.90;;;;;;3959162;30;20071;-94
2022/12/30 10:24:42;;;;;;;8.65;7.88;;;12.00;99.90;;;;;;3996671;29;20081;-93
2022/12/30 10:27:19;;;;;;;8.93;7.93;;;11.80;99.90;;;;;;4015003;29;20088;-93
2022/12/30 10:29:41;;;;;;;6.47;6.18;;;11.80;99.90;;;;;;4026993;29;20102;-94
2022/12/30 10:32:24;;;;;;;6.85;6.57;;;11.90;99.90;;;;;;4013255;29;20052;-94
2022/12/30 10:34:47;;;;;;;7.53;7.07;;;12.00;99.90;;;;;;4014444;29;20386;-93
2022/12/30 10:37:32;;;;;;;6.85;6.45;;;12.00;99.90;;;;;;4007090;29;20090;-93
2022/12/30 10:39:52;;;;;;;6.80;6.20;;;12.10;99.90;;;;;;4014603;29;20296;-93
2022/12/30 10:42:22;;;;;;;8.02;7.32;;;12.20;99.90;;;;;;4017159;29;20121;-94
2022/12/30 10:45:02;;;;;;;7.72;7.18;;;12.20;99.90;;;;;;4004986;29;20114;-93
2022/12/30 10:48:00;;;;;;;7.05;6.50;;;12.20;99.90;;;;;;4012779;29;20060;-93
2022/12/30 10:50:20;;;;;;;7.22;6.72;;;12.10;99.90;;;;;;4007853;29;20137;-94
2022/12/30 10:52:40;;;;;;;7.00;6.68;;;12.20;99.90;;;;;;4014271;29;20110;-94
2022/12/30 10:55:00;;;;;;;6.50;6.03;;;12.10;99.90;;;;;;4014385;29;20292;-94
2022/12/30 10:57:25;;;;;;;6.50;6.20;;;12.10;99.90;;;;;;4013431;29;20425;-94
2022/12/30 10:59:47;;;;;;;8.82;7.85;;;12.00;99.90;;;;;;4024662;29;20060;-92
2022/12/30 11:02:23;;;;;;;7.10;6.60;;;12.00;99.90;;;;;;4014987;29;20056;-93
2022/12/30 11:04:43;;;;;;;11.40;8.65;;;12.00;99.90;;;;;;4025021;29;20476;-94
2022/12/30 11:07:08;;;;;;;8.75;8.35;;;12.10;99.90;;;;;;4014093;29;20056;-93
2022/12/30 11:09:27;;;;;;;7.15;6.53;;;12.10;99.90;;;;;;4026544;29;20043;-94
2022/12/30 11:15:15;;;;;;;7.93;7.35;;;12.10;99.90;;;;;;4014472;29;20085;-94
2022/12/30 11:17:54;;;;;;;9.65;8.93;;;12.00;99.90;;;;;;4013643;29;20053;-93
2022/12/30 11:20:14;;;;;;;9.07;8.20;;;12.10;99.90;;;;;;4013814;29;20090;-94
2022/12/30 11:22:34;;;;;;;9.27;8.50;;;12.20;99.90;;;;;;4006196;29;20064;-95
2022/12/30 11:25:48;;;;;;;9.52;8.13;;;12.20;99.90;;;;;;4006514;29;20065;-92
2022/12/30 11:28:20;;;;;;;9.40;7.72;;;12.30;99.90;;;;;;3983045;29;20068;-93
2022/12/30 11:30:52;;;;;;;8.65;8.02;;;12.40;99.90;;;;;;3996469;29;20049;-93
2022/12/30 11:33:23;;;;;;;6.95;6.72;;;12.50;99.90;;;;;;3988028;29;20139;-93
2022/12/30 11:35:46;;;;;;;9.55;8.70;;;12.40;99.90;;;;;;3984886;29;20092;-92
2022/12/30 11:38:39;;;;;;;9.15;8.50;;;12.40;99.90;;;;;;3996724;29;20061;-93
2022/12/30 11:41:14;;;;;;;7.40;7.03;;;12.30;99.90;;;;;;3953803;30;20162;-92
2022/12/30 11:43:35;;;;;;;11.82;8.70;;;12.30;99.90;;;;;;3941235;30;20105;-92
2022/12/30 11:45:57;;;;;;;9.27;8.07;;;12.40;99.90;;;;;;3952916;30;20405;-93
2022/12/30 11:48:26;;;;;;;10.73;10.10;;;12.40;99.90;;;;;;3952795;30;20143;-94
2022/12/30 11:50:53;;;;;;;9.63;9.15;;;12.50;99.90;;;;;;3941202;30;20063;-94
2022/12/30 11:53:13;;;;;;;8.23;7.82;;;12.50;99.90;;;;;;3940036;30;20416;-93
2022/12/30 11:55:33;;;;;;;7.55;7.03;;;12.60;99.90;;;;;;3943459;30;20117;-92
2022/12/30 11:57:59;;;;;;;8.02;7.32;;;12.60;99.90;;;;;;3941737;30;20090;-93
2022/12/30 12:00:37;;;;;;;12.82;11.68;;;12.60;99.90;;;;;;3952898;30;20054;-93
2022/12/30 12:03:13;;;;;;;8.10;7.47;;;12.80;99.90;;;;;;3954132;30;20342;-94
2022/12/30 12:05:42;;;;;;;8.02;7.40;;;12.80;99.90;;;;;;3967883;29;20062;-94
2022/12/30 12:08:29;;;;;;;7.53;7.18;;;12.80;99.90;;;;;;3964173;30;20050;-93
2022/12/30 12:11:10;;;;;;;9.35;8.52;;;12.70;99.90;;;;;;3978331;29;20143;-93
2022/12/30 12:13:38;;;;;;;8.40;7.53;;;12.80;99.90;;;;;;3975667;29;20081;-93
2022/12/30 12:15:59;;;;;;;6.63;6.32;;;12.90;99.90;;;;;;3969636;29;20151;-93
2022/12/30 12:18:33;;;;;;;8.00;5.82;;;12.90;99.90;;;;;;4013978;29;20049;-93
2022/12/30 12:21:12;;;;;;;7.20;6.53;;;12.80;99.90;;;;;;4013781;29;20248;-93
2022/12/30 12:23:46;;;;;;;5.75;5.45;;;12.70;99.90;;;;;;4005656;29;20057;-93
2022/12/30 12:26:21;;;;;;;7.07;6.40;;;12.60;99.90;;;;;;4006108;29;20140;-93
2022/12/30 12:28:43;;;;;;;7.88;6.47;;;12.50;99.90;;;;;;4018499;29;20263;-93
2022/12/30 12:31:45;;;;;;;9.07;8.45;;;12.50;99.90;;;;;;4013460;29;20065;-93
2022/12/30 12:34:22;;;;;;;8.88;8.25;;;12.60;99.90;;;;;;4016059;29;20067;-93
2022/12/30 12:37:19;;;;;;;9.05;8.40;;;12.60;99.90;;;;;;4008131;29;20083;-94
2022/12/30 12:39:59;;;;;;;7.30;6.80;;;12.50;99.90;;;;;;4027155;29;20090;-94
2022/12/30 12:42:28;;;;;;;11.20;8.93;;;12.60;99.90;;;;;;4014433;29;20113;-94
2022/12/30 12:45:01;;;;;;;6.82;6.45;;;12.60;99.90;;;;;;4014691;29;20061;-86
2022/12/30 12:47:33;;;;;;;6.07;5.75;;;12.60;99.90;;;;;;4027548;29;20121;-87
2022/12/30 12:50:21;;;;;;;6.45;6.00;;;12.60;99.90;;;;;;4016057;29;20076;-86
2022/12/30 12:53:24;;;;;;;9.07;6.68;;;12.60;99.90;;;;;;4015535;29;20083;-87
2022/12/30 12:56:12;;;;;;;7.78;7.28;;;12.60;99.90;;;;;;4015052;29;20109;-87
2022/12/30 12:58:44;;;;;;;7.40;7.10;;;12.70;99.90;;;;;;4025335;29;20082;-86
2022/12/30 13:01:07;;;;;;;8.07;7.30;;;12.60;99.90;;;;;;4015712;29;20135;-86
2022/12/30 13:03:45;;;;;;;7.35;6.68;;;12.60;99.90;;;;;;4015869;29;20408;-87
2022/12/30 13:06:24;;;;;;;9.15;7.65;;;12.70;99.90;;;;;;4014477;29;20061;-87
2022/12/30 13:09:02;;;;;;;7.78;7.13;;;12.70;99.90;;;;;;4006227;29;20399;-87
2022/12/30 13:11:37;;;;;;;6.80;6.40;;;12.80;99.90;;;;;;4014606;29;20264;-87
2022/12/30 13:14:08;;;;;;;7.70;5.82;;;12.90;99.90;;;;;;4025270;29;20418;-87
2022/12/30 13:16:33;;;;;;;10.50;6.45;;;12.90;99.90;;;;;;4016130;29;20070;-87
2022/12/30 13:18:55;;;;;;;10.65;5.88;;;12.90;99.90;;;;;;4014922;29;20060;-87
2022/12/30 13:21:21;;;;;;;5.05;4.75;;;12.90;99.90;;;;;;4014826;29;20083;-87
2022/12/30 13:23:48;;;;;;;7.00;5.45;;;12.90;99.90;;;;;;4015521;29;20133;-87
2022/12/30 13:26:08;;;;;;;5.95;5.60;;;13.00;99.90;;;;;;4015252;29;20061;-87
2022/12/30 13:28:31;;;;;;;6.63;5.65;;;13.00;99.90;;;;;;4007324;29;20053;-87
2022/12/30 13:31:19;;;;;;;5.97;5.60;;;13.00;99.90;;;;;;4025951;29;20056;-87
2022/12/30 13:34:22;;;;;;;5.50;5.03;;;13.00;99.90;;;;;;4015711;29;20090;-87
2022/12/30 13:37:03;;;;;;;4.78;4.47;;;13.00;99.90;;;;;;4015496;29;20056;-86
2022/12/30 13:39:38;;;;;;;5.50;5.18;;;13.10;99.90;;;;;;4015244;29;20092;-86
2022/12/30 13:42:36;;;;;;;7.85;7.32;;;13.10;99.90;;;;;;4006125;29;20057;-87
2022/12/30 13:44:56;;;;;;;6.72;6.22;;;13.10;99.90;;;;;;3989702;29;20098;-90
2022/12/30 13:47:36;;;;;;;9.23;8.00;;;13.10;99.90;;;;;;4023216;29;20090;-87
2022/12/30 13:49:56;;;;;;;12.23;7.57;;;13.10;99.90;;;;;;4013931;29;20324;-87